Time;durP1;ratioP1;P1;durP2;ratioP2;P2;SDS_P1;SDS_P2;PMS_P1;PMS_P2;Temp;Humidity;BMP_temperature;BMP_pressure;BME280_temperature;BME280_humidity;BME280_pressure;Samples;Min_cycle;Max_cycle;Signal;HPM_P1;HPM_P2
2023/03/15 00:01:14;;;;;;;;;;;2.20;99.90;;;;;;5034532;28;20264;-75
2023/03/15 00:03:39;;;;;;;;;;;2.20;99.90;;;;;;5033956;28;19960;-75
2023/03/15 00:06:05;;;;;;;;;;;2.20;99.90;;;;;;5033968;28;19905;-75
2023/03/15 00:08:33;;;;;;;;;;;2.20;99.90;;;;;;5034158;28;19958;-75
2023/03/15 00:11:00;;;;;;;;;;;2.20;99.90;;;;;;5016288;28;19913;-75
2023/03/15 00:13:26;;;;;;;;;;;2.10;99.90;;;;;;5016410;28;19912;-75
2023/03/15 00:15:55;;;;;;;;;;;2.20;99.90;;;;;;5016855;28;19905;-75
2023/03/15 00:18:20;;;;;;;;;;;2.10;99.90;;;;;;5016147;28;19920;-75
2023/03/15 00:20:46;;;;;;;;;;;2.10;99.90;;;;;;5016348;28;19905;-75
2023/03/15 00:23:12;;;;;;;;;;;2.10;99.90;;;;;;5016714;28;19988;-75
2023/03/15 00:25:37;;;;;;;;;;;2.10;99.90;;;;;;5035886;28;19905;-75
2023/03/15 00:28:08;;;;;;;;;;;2.00;99.90;;;;;;5020653;28;19905;-75
2023/03/15 00:30:36;;;;;;;;;;;2.00;99.90;;;;;;5037705;28;19916;-75
2023/03/15 00:33:04;;;;;;;;;;;2.90;99.90;;;;;;5019820;28;19964;-75
2023/03/15 00:35:30;;;;;;;;;;;2.70;99.90;;;;;;5037691;28;19909;-75
2023/03/15 00:37:56;;;;;;;;;;;2.00;99.90;;;;;;5037550;28;19955;-75
2023/03/15 00:40:22;;;;;;;;;;;1.90;99.90;;;;;;5019709;28;19905;-75
2023/03/15 00:42:49;;;;;;;;;;;1.90;99.90;;;;;;5020076;28;19905;-75
2023/03/15 00:45:15;;;;;;;;;;;1.90;99.90;;;;;;5037128;28;20390;-75
2023/03/15 00:47:40;;;;;;;;;;;4.00;99.90;;;;;;5019419;28;19909;-75
2023/03/15 00:50:06;;;;;;;;;;;1.90;99.90;;;;;;5037176;28;19909;-75
2023/03/15 00:52:34;;;;;;;;;;;2.00;99.90;;;;;;5019630;28;20366;-75
2023/03/15 00:55:00;;;;;;;;;;;2.00;99.90;;;;;;5020154;28;19904;-75
2023/03/15 00:57:25;;;;;;;;;;;2.00;99.90;;;;;;5038193;28;19911;-75
2023/03/15 00:59:52;;;;;;;;;;;3.40;99.90;;;;;;5037068;28;19948;-75
2023/03/15 01:02:20;;;;;;;;;;;2.10;99.90;;;;;;5019243;28;20376;-75
2023/03/15 01:04:50;;;;;;;;;;;2.10;99.90;;;;;;5037043;28;19928;-75
2023/03/15 01:07:15;;;;;;;;;;;2.10;99.90;;;;;;5019086;28;19911;-75
2023/03/15 01:09:41;;;;;;;;;;;2.20;99.90;;;;;;5037007;28;20355;-75
2023/03/15 01:12:07;;;;;;;;;;;2.20;99.90;;;;;;5019158;28;20376;-75
2023/03/15 01:14:34;;;;;;;;;;;2.20;99.90;;;;;;5036788;28;19996;-75
2023/03/15 01:17:00;;;;;;;;;;;2.30;99.90;;;;;;5037296;28;20280;-75
2023/03/15 01:19:25;;;;;;;;;;;2.30;99.90;;;;;;5018992;28;19912;-75
2023/03/15 01:21:52;;;;;;;;;;;2.30;99.90;;;;;;5036578;28;19952;-75
2023/03/15 01:24:17;;;;;;;;;;;2.30;99.90;;;;;;5019470;28;19905;-75
2023/03/15 01:26:43;;;;;;;;;;;2.30;99.90;;;;;;5018603;28;19931;-75
2023/03/15 01:29:08;;;;;;;;;;;2.30;99.90;;;;;;5036611;28;20042;-75
2023/03/15 01:31:34;;;;;;;;;;;2.30;99.90;;;;;;5018555;28;19912;-75
2023/03/15 01:33:59;;;;;;;;;;;2.30;99.90;;;;;;5036554;28;20422;-75
2023/03/15 01:36:25;;;;;;;;;;;2.30;99.90;;;;;;5017904;28;19996;-75
2023/03/15 01:38:51;;;;;;;;;;;2.20;99.90;;;;;;5018710;28;19959;-75
2023/03/15 01:41:18;;;;;;;;;;;2.20;99.90;;;;;;5018494;28;19912;-75
2023/03/15 01:43:46;;;;;;;;;;;2.20;99.90;;;;;;5018609;28;19920;-75
2023/03/15 01:46:23;;;;;;;;;;;2.90;99.90;;;;;;5036099;28;19995;-75
2023/03/15 01:48:53;;;;;;;;;;;2.20;99.90;;;;;;5036375;28;19909;-75
2023/03/15 01:51:24;;;;;;;;;;;2.20;99.90;;;;;;5036482;28;19956;-75
2023/03/15 01:53:57;;;;;;;;;;;2.20;99.90;;;;;;5036790;28;19904;-75
2023/03/15 01:56:23;;;;;;;;;;;2.20;99.90;;;;;;5018174;28;19905;-75
2023/03/15 01:58:50;;;;;;;;;;;2.20;99.90;;;;;;5018146;28;19909;-75
2023/03/15 02:01:15;;;;;;;;;;;2.20;99.90;;;;;;5036149;28;20422;-75
2023/03/15 02:03:45;;;;;;;;;;;2.10;99.90;;;;;;5036010;28;19909;-75
2023/03/15 02:06:16;;;;;;;;;;;2.10;99.90;;;;;;5018043;28;19996;-75
2023/03/15 02:08:50;;;;;;;;;;;2.10;99.90;;;;;;5018289;28;19905;-75
2023/03/15 02:11:20;;;;;;;;;;;2.00;99.90;;;;;;5035927;28;19916;-75
2023/03/15 02:13:46;;;;;;;;;;;2.00;99.90;;;;;;5018212;28;19905;-75
2023/03/15 02:16:12;;;;;;;;;;;1.90;99.90;;;;;;5017884;28;19905;-75
2023/03/15 02:18:37;;;;;;;;;;;1.90;99.90;;;;;;5017847;28;19956;-75
2023/03/15 02:21:21;;;;;;;;;;;1.90;99.90;;;;;;5017561;28;20365;-75
2023/03/15 02:23:48;;;;;;;;;;;1.80;99.90;;;;;;5035521;28;19905;-75
2023/03/15 02:26:24;;;;;;;;;;;1.80;99.90;;;;;;5017583;28;19909;-75
2023/03/15 02:28:50;;;;;;;;;;;1.80;99.90;;;;;;5035490;28;19992;-75
2023/03/15 02:31:16;;;;;;;;;;;1.80;99.90;;;;;;5017856;28;19995;-75
2023/03/15 02:33:47;;;;;;;;;;;1.70;99.90;;;;;;5017472;28;19920;-75
2023/03/15 02:36:19;;;;;;;;;;;1.70;99.90;;;;;;5035463;28;20014;-75
2023/03/15 02:38:44;;;;;;;;;;;1.70;99.90;;;;;;5035350;28;19905;-75
2023/03/15 02:41:10;;;;;;;;;;;1.70;99.90;;;;;;5017762;28;19928;-75
2023/03/15 02:43:37;;;;;;;;;;;1.70;99.90;;;;;;5035825;28;19905;-75
2023/03/15 02:46:02;;;;;;;;;;;1.70;99.90;;;;;;5017308;28;19905;-75
2023/03/15 02:48:30;;;;;;;;;;;1.80;99.90;;;;;;5035306;28;20426;-75
2023/03/15 02:50:56;;;;;;;;;;;1.80;99.90;;;;;;5034988;28;19915;-75
2023/03/15 02:53:21;;;;;;;;;;;1.80;99.90;;;;;;5035195;28;20003;-75
2023/03/15 02:55:47;;;;;;;;;;;1.90;99.90;;;;;;5034921;28;20007;-75
2023/03/15 02:58:12;;;;;;;;;;;2.00;99.90;;;;;;5017329;28;19954;-75
2023/03/15 03:00:38;;;;;;;;;;;2.00;99.90;;;;;;5034980;28;19912;-75
2023/03/15 03:03:03;;;;;;;;;;;1.90;99.90;;;;;;5017440;28;19905;-75
2023/03/15 03:05:31;;;;;;;;;;;1.90;99.90;;;;;;5017008;28;19996;-75
2023/03/15 03:08:01;;;;;;;;;;;1.90;99.90;;;;;;5034783;28;20280;-75
2023/03/15 03:10:30;;;;;;;;;;;4.10;99.90;;;;;;5034764;28;19909;-75
2023/03/15 03:12:55;;;;;;;;;;;4.20;99.90;;;;;;5035379;28;19905;-75
2023/03/15 03:15:21;;;;;;;;;;;1.90;99.90;;;;;;5034617;28;19912;-75
2023/03/15 03:17:47;;;;;;;;;;;1.80;99.90;;;;;;5034516;28;20320;-75
2023/03/15 03:20:13;;;;;;;;;;;1.70;99.90;;;;;;5034427;28;19905;-75
2023/03/15 03:22:39;;;;;;;;;;;1.70;99.90;;;;;;5016515;28;19905;-75
2023/03/15 03:25:05;;;;;;;;;;;1.50;99.90;;;;;;5016531;28;19905;-75
2023/03/15 03:27:35;;;;;;;;;;;1.60;99.90;;;;;;5034854;28;19906;-75
2023/03/15 03:30:02;;;;;;;;;;;1.50;99.90;;;;;;5016413;28;19915;-75
2023/03/15 03:32:27;;;;;;;;;;;1.50;99.90;;;;;;5034408;28;19939;-75
2023/03/15 03:34:53;;;;;;;;;;;1.40;99.90;;;;;;5017130;28;19910;-75
2023/03/15 03:37:19;;;;;;;;;;;1.40;99.90;;;;;;5034774;28;19909;-75
2023/03/15 03:39:45;;;;;;;;;;;1.40;99.90;;;;;;5034394;28;19905;-75
2023/03/15 03:42:10;;;;;;;;;;;1.30;99.90;;;;;;5016289;28;20000;-75
2023/03/15 03:44:36;;;;;;;;;;;1.30;99.90;;;;;;5034230;28;20360;-75
2023/03/15 03:47:04;;;;;;;;;;;1.30;99.90;;;;;;5016377;28;19905;-75
2023/03/15 03:49:30;;;;;;;;;;;1.20;99.90;;;;;;5016369;28;19971;-75
2023/03/15 03:51:55;;;;;;;;;;;1.40;99.90;;;;;;5034581;28;20344;-75
2023/03/15 03:54:21;;;;;;;;;;;1.40;99.90;;;;;;5016324;28;19905;-75
2023/03/15 03:56:47;;;;;;;;;;;1.50;99.90;;;;;;5016273;28;19936;-75
2023/03/15 03:59:13;;;;;;;;;;;1.50;99.90;;;;;;5033887;28;19911;-75
2023/03/15 04:01:40;;;;;;;;;;;1.50;99.90;;;;;;5037815;28;19909;-75
2023/03/15 04:04:06;;;;;;;;;;;1.50;99.90;;;;;;5019966;28;19905;-74
2023/03/15 04:06:32;;;;;;;;;;;1.50;99.90;;;;;;5020231;28;19955;-75
2023/03/15 04:08:57;;;;;;;;;;;1.50;99.90;;;;;;5019707;28;19964;-75
2023/03/15 04:11:25;;;;;;;;;;;1.60;99.90;;;;;;5037585;28;19916;-75
2023/03/15 04:13:54;;;;;;;;;;;2.80;99.90;;;;;;5037618;28;19994;-75
2023/03/15 04:16:20;;;;;;;;;;;1.70;99.90;;;;;;5019708;28;20364;-75
2023/03/15 04:18:45;;;;;;;;;;;1.70;99.90;;;;;;5037571;28;19905;-75
2023/03/15 04:21:11;;;;;;;;;;;1.70;99.90;;;;;;5037744;28;20387;-75
2023/03/15 04:23:37;;;;;;;;;;;1.70;99.90;;;;;;5037556;28;19909;-75
2023/03/15 04:26:04;;;;;;;;;;;1.70;99.90;;;;;;5037597;28;20002;-75
2023/03/15 04:28:30;;;;;;;;;;;1.70;99.90;;;;;;5038069;28;19908;-75
2023/03/15 04:30:57;;;;;;;;;;;1.60;99.90;;;;;;5037477;28;19955;-75
2023/03/15 04:33:23;;;;;;;;;;;1.60;99.90;;;;;;5037193;28;19913;-75
2023/03/15 04:35:51;;;;;;;;;;;1.50;99.90;;;;;;5019654;28;19916;-75
2023/03/15 04:38:17;;;;;;;;;;;1.50;99.90;;;;;;5019482;28;19933;-75
2023/03/15 04:40:42;;;;;;;;;;;1.50;99.90;;;;;;5019549;28;19940;-75
2023/03/15 04:43:08;;;;;;;;;;;1.50;99.90;;;;;;5019408;28;20001;-75
2023/03/15 04:45:33;;;;;;;;;;;1.50;99.90;;;;;;5019243;28;20405;-75
2023/03/15 04:48:00;;;;;;;;;;;1.40;99.90;;;;;;5037160;28;19954;-75
2023/03/15 04:50:26;;;;;;;;;;;1.10;99.90;;;;;;5019350;28;19909;-75
2023/03/15 04:52:51;;;;;;;;;;;1.40;99.90;;;;;;5019377;28;20280;-75
2023/03/15 04:55:17;;;;;;;;;;;1.40;99.90;;;;;;5019263;28;19912;-75
2023/03/15 04:57:42;;;;;;;;;;;1.40;99.90;;;;;;5019457;28;19905;-75
2023/03/15 05:00:09;;;;;;;;;;;1.50;99.90;;;;;;5019226;28;20319;-75
2023/03/15 05:02:38;;;;;;;;;;;1.50;99.90;;;;;;5019078;28;19905;-75
2023/03/15 05:05:04;;;;;;;;;;;1.50;99.90;;;;;;5019266;28;19905;-75
2023/03/15 05:07:30;;;;;;;;;;;1.50;99.90;;;;;;5019013;28;19911;-75
2023/03/15 05:09:55;;;;;;;;;;;1.50;99.90;;;;;;5036795;28;20004;-75
2023/03/15 05:12:23;;;;;;;;;;;1.60;99.90;;;;;;5017679;28;19928;-75
2023/03/15 05:14:48;;;;;;;;;;;1.60;99.90;;;;;;5018870;28;19912;-75
2023/03/15 05:17:14;;;;;;;;;;;1.60;99.90;;;;;;5036507;28;19905;-75
2023/03/15 05:19:40;;;;;;;;;;;3.50;99.90;;;;;;5018839;28;19905;-75
2023/03/15 05:22:06;;;;;;;;;;;1.70;99.90;;;;;;5018710;28;19978;-75
2023/03/15 05:24:31;;;;;;;;;;;1.70;99.90;;;;;;5018646;28;20003;-75
2023/03/15 05:26:57;;;;;;;;;;;1.80;99.90;;;;;;5036539;28;19908;-75
2023/03/15 05:29:22;;;;;;;;;;;1.70;99.90;;;;;;5018759;28;19905;-75
2023/03/15 05:31:48;;;;;;;;;;;1.80;99.90;;;;;;5018672;28;19921;-75
2023/03/15 05:34:13;;;;;;;;;;;1.80;99.90;;;;;;5018844;28;20261;-75
2023/03/15 05:36:40;;;;;;;;;;;1.80;99.90;;;;;;5018614;28;19909;-75
2023/03/15 05:39:06;;;;;;;;;;;1.80;99.90;;;;;;5036586;28;19909;-75
2023/03/15 05:41:32;;;;;;;;;;;1.80;99.90;;;;;;5036257;28;19911;-75
2023/03/15 05:43:58;;;;;;;;;;;1.90;99.90;;;;;;5018310;28;19905;-75
2023/03/15 05:46:24;;;;;;;;;;;1.90;99.90;;;;;;5018633;28;20387;-75
2023/03/15 05:48:50;;;;;;;;;;;1.90;99.90;;;;;;5018454;28;19905;-75
2023/03/15 05:51:15;;;;;;;;;;;1.90;99.90;;;;;;5018598;28;19915;-75
2023/03/15 05:53:41;;;;;;;;;;;2.00;99.90;;;;;;5036635;28;19911;-75
2023/03/15 05:56:07;;;;;;;;;;;2.10;99.90;;;;;;5036482;28;19909;-75
2023/03/15 05:58:32;;;;;;;;;;;2.10;99.90;;;;;;5036319;28;20003;-75
2023/03/15 06:01:00;;;;;;;;;;;2.10;99.90;;;;;;5036736;28;19931;-75
2023/03/15 06:03:26;;;;;;;;;;;2.10;99.90;;;;;;5017841;28;19905;-75
2023/03/15 06:05:52;;;;;;;;;;;2.10;99.90;;;;;;5018465;28;19912;-75
2023/03/15 06:08:17;;;;;;;;;;;2.10;99.90;;;;;;5036351;28;20345;-75
2023/03/15 06:10:43;;;;;;;;;;;2.00;99.90;;;;;;5018322;28;20387;-75
2023/03/15 06:13:09;;;;;;;;;;;2.00;99.90;;;;;;5017938;28;19951;-75
2023/03/15 06:15:34;;;;;;;;;;;2.00;99.90;;;;;;5035958;28;19940;-75
2023/03/15 06:18:00;;;;;;;;;;;1.90;99.90;;;;;;5018214;28;19905;-75
2023/03/15 06:20:25;;;;;;;;;;;1.90;99.90;;;;;;5018118;28;19991;-75
2023/03/15 06:22:51;;;;;;;;;;;1.90;99.90;;;;;;5017597;28;20067;-75
2023/03/15 06:25:17;;;;;;;;;;;1.90;99.90;;;;;;5035800;28;19959;-75
2023/03/15 06:27:42;;;;;;;;;;;2.00;99.90;;;;;;5035783;28;20364;-75
2023/03/15 06:30:08;;;;;;;;;;;2.00;99.90;;;;;;5035916;28;20291;-76
2023/03/15 06:32:34;;;;;;;;;;;2.00;99.90;;;;;;5035803;28;19920;-76
2023/03/15 06:34:59;;;;;;;;;;;2.10;99.90;;;;;;5036351;28;19976;-75
2023/03/15 06:37:25;;;;;;;;;;;2.20;99.90;;;;;;5017675;28;20422;-75
2023/03/15 06:39:51;;;;;;;;;;;2.20;99.90;;;;;;5035466;28;19995;-75
2023/03/15 06:42:17;;;;;;;;;;;2.20;99.90;;;;;;5017242;28;19905;-75
2023/03/15 06:44:42;;;;;;;;;;;2.20;99.90;;;;;;5035617;28;19958;-75
2023/03/15 06:47:09;;;;;;;;;;;2.30;99.90;;;;;;5017623;28;20280;-75
2023/03/15 06:49:34;;;;;;;;;;;2.30;99.90;;;;;;5017447;28;19909;-75
2023/03/15 06:51:59;;;;;;;;;;;2.40;99.90;;;;;;5035354;28;19912;-75
2023/03/15 06:54:25;;;;;;;;;;;2.30;99.90;;;;;;5035321;28;19905;-75
2023/03/15 06:56:51;;;;;;;;;;;2.40;99.90;;;;;;5035373;28;19905;-76
2023/03/15 06:59:16;;;;;;;;;;;2.40;99.90;;;;;;5018233;28;19912;-75
2023/03/15 07:01:42;;;;;;;;;;;2.40;99.90;;;;;;5017732;28;19909;-75
2023/03/15 07:04:08;;;;;;;;;;;2.50;99.90;;;;;;5036502;28;19905;-76
2023/03/15 07:06:34;;;;;;;;;;;2.50;99.90;;;;;;5035832;28;19905;-76
2023/03/15 07:09:00;;;;;;;;;;;2.60;99.90;;;;;;5017177;28;20406;-76
2023/03/15 07:11:25;;;;;;;;;;;3.00;99.90;;;;;;5017519;28;19915;-76
2023/03/15 07:13:51;;;;;;;;;;;2.50;99.90;;;;;;5035576;28;19935;-75
2023/03/15 07:16:16;;;;;;;;;;;2.60;99.90;;;;;;5018273;28;19905;-76
2023/03/15 07:18:42;;;;;;;;;;;2.70;99.90;;;;;;5017376;28;19905;-76
2023/03/15 07:21:07;;;;;;;;;;;2.70;99.90;;;;;;5017081;28;19905;-76
2023/03/15 07:23:33;;;;;;;;;;;2.70;99.90;;;;;;5034555;28;19956;-76
2023/03/15 07:25:58;;;;;;;;;;;2.80;99.90;;;;;;5016687;28;20273;-76
2023/03/15 07:28:24;;;;;;;;;;;2.90;99.90;;;;;;5016761;28;19909;-76
2023/03/15 07:30:57;;;;;;;;;;;2.90;99.90;;;;;;5016444;28;19916;-76
2023/03/15 07:33:23;;;;;;;;;;;3.00;99.90;;;;;;5016572;28;19913;-76
2023/03/15 07:35:49;;;;;;;;;;;4.50;99.90;;;;;;5015978;28;19955;-76
2023/03/15 07:41:05;;;;;;;;;;;3.20;99.90;;;;;;5025541;28;19967;-76
2023/03/15 07:43:31;;;;;;;;;;;3.20;99.90;;;;;;5034125;28;20326;-75
2023/03/15 07:45:56;;;;;;;;;;;3.40;99.90;;;;;;5034390;28;19905;-74
2023/03/15 07:48:25;;;;;;;;;;;3.50;99.90;;;;;;5016518;28;20414;-75
2023/03/15 07:50:50;;;;;;;;;;;3.70;99.90;;;;;;5034327;28;19909;-74
2023/03/15 07:53:16;;;;;;;;;;;3.60;99.90;;;;;;5034091;28;19931;-75
2023/03/15 07:55:41;;;;;;;;;;;3.70;99.90;;;;;;5034068;28;20319;-74
2023/03/15 07:58:06;;;;;;;;;;;3.70;99.90;;;;;;5016384;28;19959;-74
2023/03/15 08:00:32;;;;;;;;;;;4.00;99.90;;;;;;5016218;28;19913;-74
2023/03/15 08:02:58;;;;;;;;;;;3.80;99.90;;;;;;5033693;28;19909;-74
2023/03/15 08:05:23;;;;;;;;;;;3.80;99.90;;;;;;5016180;28;19911;-74
2023/03/15 08:07:49;;;;;;;;;;;3.90;99.90;;;;;;5016083;28;19908;-74
2023/03/15 08:10:15;;;;;;;;;;;4.00;99.90;;;;;;5015884;28;19912;-74
2023/03/15 08:12:41;;;;;;;;;;;4.10;99.90;;;;;;5033970;28;19959;-74
2023/03/15 08:15:13;;;;;;;;;;;4.20;99.90;;;;;;5033563;28;19905;-74
2023/03/15 08:17:40;;;;;;;;;;;4.20;99.90;;;;;;5015734;28;19924;-74
2023/03/15 08:20:08;;;;;;;;;;;4.30;99.90;;;;;;5015870;28;20011;-74
2023/03/15 08:22:34;;;;;;;;;;;4.30;99.90;;;;;;5033425;28;20424;-74
2023/03/15 08:24:59;;;;;;;;;;;4.40;99.90;;;;;;5033416;28;19905;-74
2023/03/15 08:27:25;;;;;;;;;;;4.50;99.90;;;;;;5033448;28;19905;-74
2023/03/15 08:29:50;;;;;;;;;;;4.60;99.90;;;;;;5033535;28;20410;-74
2023/03/15 08:32:17;;;;;;;;;;;4.70;99.90;;;;;;5033356;28;19913;-74
2023/03/15 08:34:42;;;;;;;;;;;4.70;99.90;;;;;;5015710;28;19951;-74
2023/03/15 08:37:10;;;;;;;;;;;5.80;99.90;;;;;;5033279;28;19908;-74
2023/03/15 08:39:36;;;;;;;;;;;4.90;99.90;;;;;;5015798;28;19927;-74
2023/03/15 08:42:02;;;;;;;;;;;5.00;99.90;;;;;;5015912;28;19991;-74
2023/03/15 08:44:27;;;;;;;;;;;5.00;99.90;;;;;;5033559;28;19905;-74
2023/03/15 08:46:53;;;;;;;;;;;5.10;99.90;;;;;;5035862;28;20265;-74
2023/03/15 08:49:18;;;;;;;;;;;5.10;99.90;;;;;;5037213;28;19909;-74
2023/03/15 08:51:44;;;;;;;;;;;5.20;99.90;;;;;;5019402;28;19959;-74
2023/03/15 08:54:12;;;;;;;;;;;5.30;99.90;;;;;;5037057;28;19905;-74
2023/03/15 08:56:37;;;;;;;;;;;5.40;99.90;;;;;;5019499;28;20371;-74
2023/03/15 08:59:03;;;;;;;;;;;5.40;99.90;;;;;;5037012;28;19905;-74
2023/03/15 09:01:29;;;;;;;;;;;7.00;99.90;;;;;;5037084;28;20391;-74
2023/03/15 09:03:54;;;;;;;;;;;5.50;99.90;;;;;;5037106;28;19905;-74
2023/03/15 09:06:20;;;;;;;;;;;5.60;99.90;;;;;;5037025;28;19905;-74
2023/03/15 09:08:45;;;;;;;;;;;5.70;99.90;;;;;;5019195;28;19905;-74
2023/03/15 09:11:11;;;;;;;;;;;5.80;99.90;;;;;;5019120;28;19909;-74
2023/03/15 09:13:36;;;;;;;;;;;5.80;99.90;;;;;;5018976;28;19912;-74
2023/03/15 09:16:02;;;;;;;;;;;5.90;99.90;;;;;;5018963;28;19905;-74
2023/03/15 09:18:28;;;;;;;;;;;6.00;99.90;;;;;;5019143;28;19940;-74
2023/03/15 09:20:53;;;;;;;;;;;6.00;99.90;;;;;;5020180;28;20340;-74
2023/03/15 09:23:18;;;;;;;;;;;6.10;99.90;;;;;;5019551;28;19924;-74
2023/03/15 09:25:44;;;;;;;;;;;6.10;99.90;;;;;;5037449;28;19912;-74
2023/03/15 09:28:10;;;;;;;;;;;6.20;99.90;;;;;;5019603;28;19911;-74
2023/03/15 09:30:36;;;;;;;;;;;6.40;99.90;;;;;;5019345;28;19916;-74
2023/03/15 09:33:02;;;;;;;;;;;6.30;99.90;;;;;;5036802;28;20387;-74
2023/03/15 09:35:27;;;;;;;;;;;6.40;99.90;;;;;;5036889;28;19909;-74
2023/03/15 09:37:53;;;;;;;;;;;6.40;99.90;;;;;;5037054;28;19905;-74
2023/03/15 09:40:21;;;;;;;;;;;8.20;99.90;;;;;;5037290;28;19949;-74
2023/03/15 09:42:55;;;;;;;;;;;6.30;99.90;;;;;;5037282;28;19905;-74
2023/03/15 09:45:21;;;;;;;;;;;6.30;99.90;;;;;;5037474;28;19939;-75
2023/03/15 09:48:02;;;;;;;;;;;6.30;99.90;;;;;;5036402;28;19947;-74
2023/03/15 09:50:33;;;;;;;;;;;6.50;99.90;;;;;;5018940;28;19923;-74
2023/03/15 09:53:05;;;;;;;;;;;6.60;99.90;;;;;;5036327;28;19909;-74
2023/03/15 09:55:31;;;;;;;;;;;6.80;99.90;;;;;;5037167;28;19909;-75
2023/03/15 09:57:58;;;;;;;;;;;6.80;99.90;;;;;;5036064;28;19905;-74
2023/03/15 10:00:36;;;;;;;;;;;6.80;99.90;;;;;;5018858;28;19912;-74
2023/03/15 10:03:05;;;;;;;;;;;6.80;99.90;;;;;;5036786;28;19956;-74
2023/03/15 10:05:37;;;;;;;;;;;6.80;99.90;;;;;;5036812;28;20000;-75
2023/03/15 10:08:08;;;;;;;;;;;6.60;99.90;;;;;;5018630;28;19905;-74
2023/03/15 10:10:35;;;;;;;;;;;6.60;99.90;;;;;;5036478;28;20323;-74
2023/03/15 10:13:17;;;;;;;;;;;6.40;99.90;;;;;;5036365;28;19905;-74
2023/03/15 10:16:02;;;;;;;;;;;6.20;99.90;;;;;;5018701;28;19905;-74
2023/03/15 10:18:35;;;;;;;;;;;6.00;99.90;;;;;;5017979;28;20455;-76
2023/03/15 10:21:08;;;;;;;;;;;6.00;99.90;;;;;;5018512;28;19952;-76
2023/03/15 10:23:53;;;;;;;;;;;6.20;99.90;;;;;;5036197;28;19905;-76
2023/03/15 10:26:25;;;;;;;;;;;6.40;99.90;;;;;;5018441;28;20000;-76
2023/03/15 10:28:52;;;;;;;;;;;6.70;99.90;;;;;;5036410;28;19928;-76
2023/03/15 10:31:20;;;;;;;;;;;6.90;99.90;;;;;;5036288;28;19909;-76
2023/03/15 10:33:45;;;;;;;;;;;7.50;99.90;;;;;;5018491;28;19936;-76
2023/03/15 10:36:16;;;;;;;;;;;7.30;99.90;;;;;;5035749;28;19905;-76
2023/03/15 10:38:42;;;;;;;;;;;7.50;99.90;;;;;;5035944;28;20345;-76
2023/03/15 10:41:09;;;;;;;;;;;7.60;99.90;;;;;;5017575;28;19912;-76
2023/03/15 10:43:36;;;;;;;;;;;7.70;99.90;;;;;;5035533;28;19906;-76
2023/03/15 10:46:01;;;;;;;;;;;7.70;99.90;;;;;;5035091;28;20352;-76
2023/03/15 10:48:28;;;;;;;;;;;7.80;99.90;;;;;;5017331;28;19909;-76
2023/03/15 10:50:54;;;;;;;;;;;7.90;99.90;;;;;;5035003;28;20007;-76
2023/03/15 10:53:20;;;;;;;;;;;8.00;99.90;;;;;;5035114;28;20265;-76
2023/03/15 10:55:46;;;;;;;;;;;8.10;99.90;;;;;;5017329;28;19905;-76
2023/03/15 10:58:35;;;;;;;;;;;8.30;99.90;;;;;;5017117;28;19912;-76
2023/03/15 11:01:02;;;;;;;;;;;8.40;99.90;;;;;;5029202;28;19909;-76
2023/03/15 11:03:28;;;;;;;;;;;8.50;99.90;;;;;;5017123;28;19905;-76
2023/03/15 11:05:55;;;;;;;;;;;8.60;99.90;;;;;;5035071;28;19912;-76
2023/03/15 11:08:23;;;;;;;;;;;10.40;99.90;;;;;;5017083;28;20364;-76
2023/03/15 11:10:56;;;;;;;;;;;8.80;99.90;;;;;;5017037;28;20384;-76
2023/03/15 11:13:23;;;;;;;;;;;8.80;99.90;;;;;;5017165;28;19932;-76
2023/03/15 11:16:09;;;;;;;;;;;8.80;99.90;;;;;;5017053;28;19919;-76
2023/03/15 11:18:36;;;;;;;;;;;8.90;99.90;;;;;;5009824;28;19905;-76
2023/03/15 11:21:07;;;;;;;;;;;8.90;99.80;;;;;;5017088;28;20327;-76
2023/03/15 11:23:35;;;;;;;;;;;8.90;99.40;;;;;;5034559;28;19911;-76
2023/03/15 11:26:01;;;;;;;;;;;9.00;99.90;;;;;;5034363;28;19912;-75
2023/03/15 11:28:28;;;;;;;;;;;9.00;99.90;;;;;;5034357;28;19905;-76
2023/03/15 11:30:56;;;;;;;;;;;9.30;99.80;;;;;;5034514;28;19923;-76
2023/03/15 11:33:44;;;;;;;;;;;9.20;99.00;;;;;;5016827;28;19913;-76
2023/03/15 11:36:14;;;;;;;;;;;9.40;99.20;;;;;;5028834;28;19905;-76
2023/03/15 11:38:42;;;;;;;;;;;9.60;97.40;;;;;;5034384;28;19916;-75
2023/03/15 11:41:14;;;;;;;;;;;9.70;97.50;;;;;;5034072;28;20388;-76
2023/03/15 11:43:55;;;;;;;;;;;9.60;97.50;;;;;;5034746;28;20264;-76
2023/03/15 11:46:26;;;;;;;;;;;9.80;98.90;;;;;;5016558;28;20292;-76
2023/03/15 11:49:15;;;;;;;;;;;9.90;97.20;;;;;;5033986;28;19951;-76
2023/03/15 11:51:40;;;;;;;;;;;9.90;96.70;;;;;;5011064;28;19919;-76
2023/03/15 11:54:17;;;;;;;;;;;10.00;96.90;;;;;;5016232;28;19905;-76
2023/03/15 11:56:42;;;;;;;;;;;9.80;95.20;;;;;;5016179;28;20023;-76
2023/03/15 11:59:14;;;;;;;;;;;10.20;95.10;;;;;;5034186;28;19948;-76
2023/03/15 12:01:48;;;;;;;;;;;10.40;96.60;;;;;;5033883;28;19963;-76
2023/03/15 12:04:16;;;;;;;;;;;10.50;94.80;;;;;;5016221;28;19912;-76
2023/03/15 12:06:42;;;;;;;;;;;10.60;92.60;;;;;;5016327;28;19905;-76
2023/03/15 12:09:26;;;;;;;;;;;10.70;83.50;;;;;;5034081;28;19912;-76
2023/03/15 12:11:55;;;;;;;;;;;10.70;94.50;;;;;;5034367;28;19916;-76
2023/03/15 12:14:27;;;;;;;;;;;10.80;83.70;;;;;;5016327;28;19905;-76
2023/03/15 12:17:13;;;;;;;;;;;10.70;89.60;;;;;;5016376;28;20450;-76
2023/03/15 12:19:39;;;;;;;;;;;10.90;87.40;;;;;;5034032;28;20283;-76
2023/03/15 12:22:12;;;;;;;;;;;11.10;88.40;;;;;;5019044;28;19905;-76
2023/03/15 12:24:43;;;;;;;;;;;10.90;87.80;;;;;;5037751;28;19919;-76
2023/03/15 12:27:19;;;;;;;;;;;11.00;88.30;;;;;;5037836;28;20376;-76
2023/03/15 12:29:45;;;;;;;;;;;11.20;88.10;;;;;;5020085;28;19905;-76
2023/03/15 12:32:15;;;;;;;;;;;11.30;83.90;;;;;;5037188;28;19920;-76
2023/03/15 12:34:57;;;;;;;;;;;11.40;81.10;;;;;;5037908;28;19963;-76
2023/03/15 12:37:22;;;;;;;;;;;11.30;84.10;;;;;;5020433;28;19905;-76
2023/03/15 12:39:58;;;;;;;;;;;11.40;81.30;;;;;;5039095;28;19919;-76
2023/03/15 12:42:30;;;;;;;;;;;11.40;80.50;;;;;;5037740;28;19905;-76
2023/03/15 12:45:14;;;;;;;;;;;11.50;84.20;;;;;;5037091;28;19909;-76
2023/03/15 12:47:43;;;;;;;;;;;11.50;82.00;;;;;;5037580;28;19956;-77
2023/03/15 12:50:27;;;;;;;;;;;11.80;83.20;;;;;;5019357;28;19909;-76
2023/03/15 12:52:58;;;;;;;;;;;12.00;84.30;;;;;;5019044;28;19905;-76
2023/03/15 12:55:26;;;;;;;;;;;12.10;80.50;;;;;;5021891;28;19904;-76
2023/03/15 12:57:53;;;;;;;;;;;11.90;75.90;;;;;;5056633;28;19995;-76
2023/03/15 13:00:22;;;;;;;;;;;12.00;76.00;;;;;;5057372;28;19927;-76
2023/03/15 13:02:49;;;;;;;;;;;12.10;77.30;;;;;;5038791;28;19987;-76
2023/03/15 13:05:16;;;;;;;;;;;12.00;77.90;;;;;;5057114;28;19927;-76
2023/03/15 13:07:51;;;;;;;;;;;12.10;80.60;;;;;;5056803;28;20248;-76
2023/03/15 13:10:16;;;;;;;;;;;12.30;75.50;;;;;;5039053;28;19912;-76
2023/03/15 13:12:53;;;;;;;;;;;12.30;77.40;;;;;;5056581;28;19969;-76
2023/03/15 13:15:26;;;;;;;;;;;12.30;78.10;;;;;;5035018;28;19995;-76
2023/03/15 13:17:56;;;;;;;;;;;12.60;81.20;;;;;;5036037;28;19912;-76
2023/03/15 13:20:30;;;;;;;;;;;12.80;77.80;;;;;;5018515;28;20283;-76
2023/03/15 13:23:15;;;;;;;;;;;12.80;71.70;;;;;;5036107;28;19905;-77
2023/03/15 13:25:44;;;;;;;;;;;12.80;75.50;;;;;;5035769;28;19958;-76
2023/03/15 13:28:12;;;;;;;;;;;13.10;76.60;;;;;;5035958;28;19940;-76
2023/03/15 13:30:47;;;;;;;;;;;13.00;68.70;;;;;;5036025;28;19909;-77
2023/03/15 13:33:31;;;;;;;;;;;12.90;69.30;;;;;;5035454;28;20395;-76
2023/03/15 13:35:59;;;;;;;;;;;12.70;69.10;;;;;;5036069;28;20257;-76
2023/03/15 13:38:27;;;;;;;;;;;12.30;72.10;;;;;;5036006;28;20280;-76
2023/03/15 13:40:53;;;;;;;;;;;12.70;69.80;;;;;;5035730;28;20383;-76
2023/03/15 13:43:19;;;;;;;;;;;13.40;71.70;;;;;;5035688;28;20019;-76
2023/03/15 13:45:44;;;;;;;;;;;13.00;70.00;;;;;;5018007;28;19967;-76
2023/03/15 13:48:10;;;;;;;;;;;13.50;70.00;;;;;;5035741;28;19912;-77
2023/03/15 13:50:36;;;;;;;;;;;13.00;65.50;;;;;;5017614;28;19909;-76
2023/03/15 13:53:02;;;;;;;;;;;13.00;64.70;;;;;;5035566;28;19987;-76
2023/03/15 13:55:36;;;;;;;;;;;12.70;65.40;;;;;;5035394;28;19905;-76
2023/03/15 13:58:06;;;;;;;;;;;12.50;67.20;;;;;;5034527;28;19905;-75
2023/03/15 14:00:33;;;;;;;;;;;12.50;65.20;;;;;;5034437;28;19912;-76
2023/03/15 14:03:01;;;;;;;;;;;12.60;64.10;;;;;;5034779;28;19912;-76
2023/03/15 14:05:42;;;;;;;;;;;12.80;67.80;;;;;;5034510;28;19905;-76
2023/03/15 14:08:20;;;;;;;;;;;13.00;66.10;;;;;;5017665;28;20372;-76
2023/03/15 14:10:57;;;;;;;;;;;13.10;65.50;;;;;;5035964;28;19909;-76
2023/03/15 14:13:32;;;;;;;;;;;13.30;65.40;;;;;;5017504;28;20303;-76
2023/03/15 14:15:58;;;;;;;;;;;12.90;61.80;;;;;;5017487;28;19905;-76
2023/03/15 14:18:25;;;;;;;;;;;12.70;65.40;;;;;;5017689;28;20531;-76
2023/03/15 14:21:20;;;;;;;;;;;12.40;65.40;;;;;;5035296;28;20053;-76
2023/03/15 14:23:46;;;;;;;;;;;12.20;64.70;;;;;;5022436;28;19944;-76
2023/03/15 14:26:12;;;;;;;;;;;12.50;66.80;;;;;;5035681;28;19948;-76
2023/03/15 14:28:38;;;;;;;;;;;12.80;65.20;;;;;;5035182;28;20378;-76
2023/03/15 14:31:04;;;;;;;;;;;13.10;61.30;;;;;;5034813;28;19979;-76
2023/03/15 14:33:39;;;;;;;;;;;13.50;63.00;;;;;;5034812;28;20372;-76
2023/03/15 14:36:06;;;;;;;;;;;13.80;60.00;;;;;;5017051;28;19909;-76